Time;durP1;ratioP1;P1;durP2;ratioP2;P2;SDS_P1;SDS_P2;PMS_P1;PMS_P2;Temp;Humidity;BMP_temperature;BMP_pressure;BME280_temperature;BME280_humidity;BME280_pressure;Samples;Min_cycle;Max_cycle;Signal;HPM_P1;HPM_P2
2022/10/18 00:00:47;;;;;;;5.50;3.40;;;;;;;10.66;83.10;99869.88;5035098;28;20532;-56
2022/10/18 00:03:12;;;;;;;4.28;3.25;;;;;;;10.58;83.11;99865.06;5035317;28;20561;-56
2022/10/18 00:05:38;;;;;;;3.42;3.22;;;;;;;10.67;83.09;99867.22;5035167;28;20202;-56
2022/10/18 00:08:03;;;;;;;3.50;3.20;;;;;;;10.68;82.45;99860.31;5035232;28;20174;-56
2022/10/18 00:10:29;;;;;;;3.55;3.22;;;;;;;10.62;82.96;99865.75;5034876;28;20236;-56
2022/10/18 00:12:55;;;;;;;4.90;3.13;;;;;;;10.58;82.94;99865.06;5035134;28;20167;-56
2022/10/18 00:15:20;;;;;;;3.20;2.85;;;;;;;10.52;83.09;99854.97;5034917;28;20202;-57
2022/10/18 00:17:45;;;;;;;4.30;3.10;;;;;;;10.59;82.91;99846.03;5034783;28;20265;-57
2022/10/18 00:20:13;;;;;;;3.30;3.08;;;;;;;10.54;83.16;99849.72;5034626;28;20228;-56
2022/10/18 00:22:39;;;;;;;2.97;2.78;;;;;;;10.46;83.91;99841.47;5034667;28;20182;-56
2022/10/18 00:25:06;;;;;;;3.50;3.20;;;;;;;10.55;83.14;99835.88;5035140;28;20194;-56
2022/10/18 00:27:32;;;;;;;3.65;3.35;;;;;;;10.48;83.92;99835.34;5034512;28;20240;-56
2022/10/18 00:29:58;;;;;;;6.22;3.22;;;;;;;10.47;84.03;99832.81;5034480;28;20182;-56
2022/10/18 00:32:24;;;;;;;7.97;3.88;;;;;;;10.57;84.14;99844.44;5035016;28;20176;-57
2022/10/18 00:34:50;;;;;;;4.30;3.25;;;;;;;10.47;85.18;99837.97;5034349;28;20277;-56
2022/10/18 00:37:15;;;;;;;3.22;2.92;;;;;;;10.44;85.15;99832.97;5034351;28;20337;-57
2022/10/18 00:39:41;;;;;;;6.13;3.28;;;;;;;10.44;85.06;99841.53;5034313;28;20233;-56
2022/10/18 00:42:06;;;;;;;4.50;3.17;;;;;;;10.45;85.08;99832.88;5034303;28;20174;-57
2022/10/18 00:44:32;;;;;;;3.47;3.17;;;;;;;10.41;85.29;99838.25;5034253;28;20560;-56
2022/10/18 00:47:06;;;;;;;5.05;3.05;;;;;;;10.40;85.49;99834.00;5034166;28;20213;-57
2022/10/18 00:49:39;;;;;;;3.63;3.15;;;;;;;10.46;85.38;99833.72;5032915;28;20170;-57
2022/10/18 00:52:17;;;;;;;3.47;3.03;;;;;;;10.44;85.13;99831.19;5034452;28;20249;-56
2022/10/18 00:54:45;;;;;;;5.25;3.38;;;;;;;10.45;84.83;99832.03;5034285;28;20181;-56
2022/10/18 00:57:11;;;;;;;3.58;3.38;;;;;;;10.42;85.03;99817.50;5034081;28;20170;-57
2022/10/18 00:59:37;;;;;;;4.28;3.20;;;;;;;10.48;84.87;99822.38;5034252;28;20265;-56
2022/10/18 01:02:04;;;;;;;3.45;3.05;;;;;;;10.50;84.49;99822.34;5033899;28;20245;-56
2022/10/18 01:04:30;;;;;;;4.20;3.00;;;;;;;10.53;83.92;99811.81;5033812;28;20213;-56
2022/10/18 01:07:16;;;;;;;4.55;3.20;;;;;;;10.50;83.87;99812.78;5034053;28;20628;-56
2022/10/18 01:09:48;;;;;;;9.43;3.38;;;;;;;10.50;83.91;99807.63;5034047;28;20167;-56
2022/10/18 01:12:44;;;;;;;3.60;3.30;;;;;;;10.45;84.76;99824.28;5033632;28;20170;-56
2022/10/18 01:15:11;;;;;;;3.35;3.05;;;;;;;10.41;85.62;99812.38;5033855;28;20263;-56
2022/10/18 01:18:03;;;;;;;3.38;3.08;;;;;;;10.29;85.01;99797.41;5033627;28;20206;-56
2022/10/18 01:20:50;;;;;;;5.03;3.00;;;;;;;10.33;85.55;99802.38;5029535;28;20283;-56
2022/10/18 01:23:25;;;;;;;4.00;3.45;;;;;;;10.35;85.98;99810.06;5033499;28;20197;-57
2022/10/18 01:25:59;;;;;;;4.38;3.47;;;;;;;10.36;85.28;99814.34;5032205;28;20193;-56
2022/10/18 01:28:53;;;;;;;3.45;3.10;;;;;;;10.39;85.23;99806.44;5033366;28;20212;-56
2022/10/18 01:31:36;;;;;;;5.72;3.08;;;;;;;10.30;85.70;99804.25;5033573;28;20155;-56
2022/10/18 01:34:06;;;;;;;7.55;2.95;;;;;;;10.27;85.93;99812.19;5033524;28;20163;-56
2022/10/18 01:36:36;;;;;;;3.70;3.40;;;;;;;10.29;86.13;99818.13;5033446;28;20194;-56
2022/10/18 01:39:08;;;;;;;6.03;3.20;;;;;;;10.18;86.63;99816.03;5033712;28;20159;-56
2022/10/18 01:41:37;;;;;;;4.32;3.30;;;;;;;10.11;86.92;99806.00;5033368;28;20702;-56
2022/10/18 01:44:07;;;;;;;3.50;3.20;;;;;;;10.10;87.45;99809.50;5032995;28;20594;-56
2022/10/18 01:46:32;;;;;;;5.38;3.13;;;;;;;9.96;88.72;99809.22;5033024;28;20175;-56
2022/10/18 01:48:58;;;;;;;3.95;3.00;;;;;;;9.95;89.58;99803.22;5032945;28;20292;-55
2022/10/18 01:51:27;;;;;;;3.55;3.25;;;;;;;10.03;89.22;99805.47;5031980;28;20175;-56
2022/10/18 01:53:52;;;;;;;3.45;2.83;;;;;;;10.08;88.56;99798.38;5031516;28;20240;-56
2022/10/18 01:56:35;;;;;;;5.53;3.72;;;;;;;10.09;88.09;99808.66;5032769;28;20196;-56
2022/10/18 01:59:10;;;;;;;3.53;3.22;;;;;;;10.13;87.47;99804.19;5033364;28;20173;-56
2022/10/18 02:02:04;;;;;;;3.67;3.13;;;;;;;10.17;86.06;99797.97;5032624;28;20678;-55
2022/10/18 02:05:01;;;;;;;8.68;3.60;;;;;;;10.13;85.99;99786.94;5029573;28;20194;-56
2022/10/18 02:07:34;;;;;;;3.65;3.35;;;;;;;10.07;86.61;99786.34;5032658;28;20253;-56
2022/10/18 02:10:07;;;;;;;3.60;3.30;;;;;;;10.01;87.80;99790.03;5031358;28;20602;-56
2022/10/18 02:12:33;;;;;;;5.13;3.28;;;;;;;9.95;88.40;99784.28;5032500;28;20581;-56
2022/10/18 02:15:01;;;;;;;4.78;3.20;;;;;;;9.91;88.34;99780.13;5032695;28;20178;-56
2022/10/18 02:17:29;;;;;;;3.38;3.08;;;;;;;9.90;87.94;99781.06;5032942;28;20174;-56
2022/10/18 02:19:57;;;;;;;3.60;3.22;;;;;;;9.83;88.31;99780.50;5032432;28;20185;-56
2022/10/18 02:22:29;;;;;;;3.05;2.83;;;;;;;9.76;88.93;99773.06;5032240;28;20190;-56
2022/10/18 02:24:57;;;;;;;3.70;3.00;;;;;;;9.66;89.58;99761.44;5032576;28;20179;-56
2022/10/18 02:27:23;;;;;;;3.85;3.15;;;;;;;9.78;89.36;99772.09;5032250;28;20178;-57
2022/10/18 02:29:49;;;;;;;3.65;3.20;;;;;;;9.81;89.06;99760.78;5032253;28;20182;-56
2022/10/18 02:32:23;;;;;;;3.58;3.10;;;;;;;9.84;88.92;99776.16;5032206;28;20167;-57
2022/10/18 02:34:59;;;;;;;4.15;3.28;;;;;;;9.76;89.55;99781.66;5032124;28;20607;-56
2022/10/18 02:37:29;;;;;;;4.15;3.40;;;;;;;9.68;90.77;99780.31;5032210;28;20151;-57
2022/10/18 02:39:55;;;;;;;5.07;3.65;;;;;;;9.74;89.81;99775.72;5031870;28;20514;-56
2022/10/18 02:42:21;;;;;;;5.05;3.08;;;;;;;9.78;89.64;99768.66;5032035;28;20180;-56
2022/10/18 02:44:46;;;;;;;3.33;3.03;;;;;;;9.74;89.94;99770.53;5032026;28;20174;-56
2022/10/18 02:47:12;;;;;;;8.75;5.07;;;;;;;9.64;91.01;99778.78;5032032;28;20308;-57
2022/10/18 02:49:37;;;;;;;11.80;6.38;;;;;;;9.67;91.22;99782.97;5031936;28;20570;-57
2022/10/18 02:52:03;;;;;;;5.43;3.72;;;;;;;9.63;91.78;99782.28;5031928;28;20301;-57
2022/10/18 02:54:28;;;;;;;3.95;3.65;;;;;;;9.66;90.79;99782.13;5031983;28;20166;-57
2022/10/18 02:56:53;;;;;;;4.70;3.60;;;;;;;9.70;90.72;99791.44;5031797;28;20194;-57
2022/10/18 02:59:19;;;;;;;3.30;3.10;;;;;;;9.75;89.99;99781.75;5032116;28;20224;-57
2022/10/18 03:01:44;;;;;;;4.28;3.22;;;;;;;9.79;89.35;99791.03;5031962;28;20615;-57
2022/10/18 03:04:10;;;;;;;5.35;3.95;;;;;;;9.70;89.88;99788.84;5031887;28;20177;-57
2022/10/18 03:06:35;;;;;;;18.95;8.45;;;;;;;9.64;91.10;99795.09;5030557;28;20716;-57
2022/10/18 03:09:03;;;;;;;7.68;4.40;;;;;;;9.76;90.55;99804.09;5031846;28;20181;-57
2022/10/18 03:11:28;;;;;;;3.50;3.20;;;;;;;9.79;89.33;99811.69;5032109;28;20166;-56
2022/10/18 03:13:54;;;;;;;6.28;4.20;;;;;;;9.67;89.95;99808.81;5031856;28;20767;-57
2022/10/18 03:16:19;;;;;;;5.10;3.95;;;;;;;9.71;89.66;99806.03;5031776;28;20198;-57
2022/10/18 03:18:45;;;;;;;5.07;2.90;;;;;;;9.68;88.98;99794.06;5031677;28;20219;-56
2022/10/18 03:21:10;;;;;;;4.50;4.10;;;;;;;9.60;89.36;99803.06;5031772;28;20542;-56
2022/10/18 03:23:36;;;;;;;12.73;6.18;;;;;;;9.46;91.80;99807.13;5031608;28;20194;-57
2022/10/18 03:26:01;;;;;;;9.55;6.03;;;;;;;9.35;93.16;99807.59;5031909;28;20170;-57
2022/10/18 03:28:27;;;;;;;6.20;3.90;;;;;;;9.45;92.01;99806.31;5031686;28;20599;-57
2022/10/18 03:30:53;;;;;;;4.75;3.90;;;;;;;9.44;91.13;99808.94;5031573;28;20170;-57
2022/10/18 03:33:18;;;;;;;9.48;4.35;;;;;;;9.34;91.67;99798.16;5031548;28;20211;-57
2022/10/18 03:35:44;;;;;;;6.90;3.45;;;;;;;9.41;91.72;99806.47;5031376;28;20237;-57
2022/10/18 03:38:09;;;;;;;4.40;3.13;;;;;;;9.43;90.90;99809.84;5031657;28;20182;-56
2022/10/18 03:40:34;;;;;;;4.47;3.50;;;;;;;9.46;90.74;99800.22;5030302;28;20261;-57
2022/10/18 03:43:00;;;;;;;4.60;3.28;;;;;;;9.44;90.77;99803.78;5031789;28;20608;-57
2022/10/18 03:45:25;;;;;;;4.15;3.35;;;;;;;9.42;91.37;99802.97;5031600;28;20178;-57
2022/10/18 03:47:51;;;;;;;4.68;3.42;;;;;;;9.42;91.17;99801.25;5031756;28;20681;-57
2022/10/18 03:50:16;;;;;;;6.30;3.63;;;;;;;9.40;90.63;99799.63;5031925;28;20695;-57
2022/10/18 03:52:42;;;;;;;3.50;3.20;;;;;;;9.43;90.26;99794.34;5035213;28;20257;-57
2022/10/18 03:55:07;;;;;;;8.27;3.38;;;;;;;9.43;90.32;99800.34;5035088;28;20695;-57
2022/10/18 03:57:33;;;;;;;4.82;3.28;;;;;;;9.49;89.83;99799.25;5035152;28;20210;-57
2022/10/18 03:59:58;;;;;;;3.45;3.15;;;;;;;9.42;90.37;99797.81;5035349;28;20182;-55
2022/10/18 04:02:24;;;;;;;5.05;3.15;;;;;;;9.28;90.72;99794.97;5035025;28;20185;-55
2022/10/18 04:04:49;;;;;;;7.28;3.63;;;;;;;9.27;91.54;99804.47;5034884;28;20626;-56
2022/10/18 04:07:15;;;;;;;4.20;3.65;;;;;;;9.32;91.01;99802.53;5034807;28;20178;-55
2022/10/18 04:09:40;;;;;;;5.00;3.45;;;;;;;9.38;90.40;99801.44;5035460;28;20177;-56
2022/10/18 04:12:05;;;;;;;3.78;3.20;;;;;;;9.32;90.12;99794.78;5035372;28;20178;-55
2022/10/18 04:14:31;;;;;;;4.07;3.78;;;;;;;9.24;91.07;99802.00;5034805;28;20170;-56
2022/10/18 04:16:56;;;;;;;3.45;3.15;;;;;;;9.20;90.55;99792.69;5034920;28;20233;-55
2022/10/18 04:19:22;;;;;;;4.70;4.30;;;;;;;9.25;90.56;99795.94;5034766;28;20667;-56
2022/10/18 04:21:47;;;;;;;3.63;3.30;;;;;;;9.32;90.63;99791.38;5034513;28;20197;-56
2022/10/18 04:24:12;;;;;;;8.75;3.38;;;;;;;9.31;90.72;99784.53;5034858;28;20288;-55
2022/10/18 04:26:38;;;;;;;3.65;3.30;;;;;;;9.35;90.78;99802.41;5033325;28;20163;-55
2022/10/18 04:29:03;;;;;;;3.83;3.45;;;;;;;9.31;90.88;99797.44;5034760;28;20177;-56
2022/10/18 04:31:28;;;;;;;3.78;3.47;;;;;;;9.39;90.58;99792.78;5034723;28;20261;-56
2022/10/18 04:33:54;;;;;;;5.38;3.47;;;;;;;9.37;90.49;99795.44;5034520;28;20190;-57
2022/10/18 04:36:19;;;;;;;9.85;3.25;;;;;;;9.33;90.48;99793.06;5034371;28;20248;-55
2022/10/18 04:38:45;;;;;;;5.32;3.80;;;;;;;9.29;90.57;99799.22;5034326;28;20285;-54
2022/10/18 04:41:10;;;;;;;3.85;3.55;;;;;;;9.29;90.05;99791.50;5034816;28;20178;-55
2022/10/18 04:43:36;;;;;;;4.97;3.72;;;;;;;9.19;90.62;99811.69;5034317;28;20206;-55
2022/10/18 04:46:01;;;;;;;4.30;3.30;;;;;;;9.28;90.32;99808.75;5034799;28;20178;-55
2022/10/18 04:48:26;;;;;;;3.63;3.33;;;;;;;9.27;90.56;99788.97;5034196;28;20173;-55
2022/10/18 04:50:52;;;;;;;6.78;3.25;;;;;;;9.32;89.87;99797.38;5034159;28;20245;-55
2022/10/18 04:53:18;;;;;;;3.97;3.45;;;;;;;9.31;89.34;99795.69;5032768;28;20269;-55
2022/10/18 04:55:47;;;;;;;5.45;3.63;;;;;;;9.32;89.16;99796.53;5034198;28;20208;-55
2022/10/18 04:58:14;;;;;;;3.50;3.20;;;;;;;9.31;89.46;99805.19;5034261;28;20174;-56
2022/10/18 05:00:39;;;;;;;4.35;3.17;;;;;;;9.30;89.22;99801.75;5034027;28;20232;-55
2022/10/18 05:03:05;;;;;;;5.20;3.63;;;;;;;9.34;88.90;99816.25;5033267;28;20647;-56
2022/10/18 05:05:30;;;;;;;4.60;3.20;;;;;;;9.32;88.78;99786.22;5033807;28;20176;-56
2022/10/18 05:07:56;;;;;;;3.28;3.05;;;;;;;9.32;88.64;99787.03;5033829;28;20659;-55
2022/10/18 05:10:21;;;;;;;4.97;3.20;;;;;;;9.25;88.89;99787.34;5034051;28;20206;-56
2022/10/18 05:12:46;;;;;;;4.28;3.40;;;;;;;9.29;89.19;99800.09;5033757;28;20174;-55
2022/10/18 05:15:12;;;;;;;3.17;2.97;;;;;;;9.36;88.42;99793.75;5033652;28;20198;-56
2022/10/18 05:17:37;;;;;;;3.30;2.83;;;;;;;9.37;87.89;99795.44;5033633;28;20166;-56
2022/10/18 05:20:03;;;;;;;4.85;3.03;;;;;;;9.43;87.59;99796.94;5033599;28;20659;-56
2022/10/18 05:22:29;;;;;;;3.38;3.08;;;;;;;9.49;87.65;99801.84;5033399;28;20702;-56
2022/10/18 05:24:54;;;;;;;4.93;3.03;;;;;;;9.52;87.03;99807.72;5033729;28;20206;-56
2022/10/18 05:27:19;;;;;;;3.70;2.97;;;;;;;9.47;87.20;99796.75;5032496;28;20265;-56
2022/10/18 05:29:45;;;;;;;3.50;2.80;;;;;;;9.52;86.64;99805.13;5033611;28;20201;-56
2022/10/18 05:32:10;;;;;;;4.40;3.65;;;;;;;9.56;86.80;99795.50;5033549;28;20174;-56
2022/10/18 05:34:36;;;;;;;5.65;3.20;;;;;;;9.64;86.26;99796.88;5033651;28;20274;-57
2022/10/18 05:37:01;;;;;;;3.30;2.83;;;;;;;9.69;84.95;99806.09;5033684;28;20202;-57
2022/10/18 05:39:27;;;;;;;3.40;3.10;;;;;;;9.63;85.09;99802.94;5033164;28;20240;-57
2022/10/18 05:41:52;;;;;;;4.13;3.47;;;;;;;9.62;85.51;99796.06;5033381;28;20170;-54
2022/10/18 05:44:17;;;;;;;7.35;3.80;;;;;;;9.75;84.39;99792.06;5033331;28;20185;-57
2022/10/18 05:46:43;;;;;;;3.30;3.00;;;;;;;9.80;84.03;99795.31;5033065;28;20171;-57
2022/10/18 05:49:11;;;;;;;3.55;3.03;;;;;;;9.84;83.81;99807.16;5033027;28;20240;-57
2022/10/18 05:51:36;;;;;;;3.30;3.10;;;;;;;9.88;83.87;99806.97;5033210;28;20177;-57
2022/10/18 05:54:01;;;;;;;5.40;3.40;;;;;;;9.94;83.08;99803.28;5032893;28;20167;-57
2022/10/18 05:56:27;;;;;;;7.30;3.28;;;;;;;9.98;82.54;99784.16;5032769;28;20548;-57
2022/10/18 05:58:52;;;;;;;4.30;3.28;;;;;;;10.08;82.26;99794.06;5032863;28;20177;-57
2022/10/18 06:01:18;;;;;;;4.55;3.38;;;;;;;10.10;81.78;99794.00;5031481;28;20182;-57
2022/10/18 06:03:44;;;;;;;6.15;3.45;;;;;;;10.17;82.06;99797.97;5032750;28;20228;-57
2022/10/18 06:06:11;;;;;;;3.35;3.00;;;;;;;10.17;81.29;99810.91;5032632;28;20171;-57
2022/10/18 06:08:38;;;;;;;6.60;3.17;;;;;;;10.28;81.21;99803.50;5032920;28;20265;-57
2022/10/18 06:11:22;;;;;;;3.35;3.05;;;;;;;10.28;81.11;99798.34;5032685;28;20174;-57
2022/10/18 06:13:49;;;;;;;5.95;3.10;;;;;;;10.40;80.67;99802.94;5033053;28;20241;-57
2022/10/18 06:16:17;;;;;;;2.60;2.50;;;;;;;10.51;79.63;99808.47;5032654;28;20201;-57
2022/10/18 06:18:47;;;;;;;4.22;2.70;;;;;;;10.60;79.24;99810.63;5032676;28;20177;-56
2022/10/18 06:21:12;;;;;;;4.05;3.20;;;;;;;10.66;78.11;99807.75;5031162;28;20667;-56
2022/10/18 06:23:38;;;;;;;3.33;3.00;;;;;;;10.74;78.12;99811.66;5032310;28;20188;-56
2022/10/18 06:26:06;;;;;;;4.30;3.28;;;;;;;10.84;77.26;99810.31;5031099;28;20178;-57
2022/10/18 06:28:34;;;;;;;2.80;2.60;;;;;;;10.93;77.02;99812.50;5032633;28;20185;-56
2022/10/18 06:30:59;;;;;;;3.45;3.15;;;;;;;10.94;77.30;99814.16;5032468;28;20270;-57
2022/10/18 06:33:24;;;;;;;3.30;3.00;;;;;;;11.06;77.03;99820.50;5032282;28;20245;-56
2022/10/18 06:36:01;;;;;;;3.22;2.90;;;;;;;11.13;76.88;99816.69;5032601;28;20755;-56
2022/10/18 06:38:28;;;;;;;3.00;2.75;;;;;;;11.20;76.24;99818.91;5032528;28;20166;-57
2022/10/18 06:40:54;;;;;;;5.15;2.78;;;;;;;11.28;75.95;99813.38;5032226;28;20662;-57
2022/10/18 06:43:20;;;;;;;3.10;2.80;;;;;;;11.34;76.02;99819.09;5032190;28;20178;-57
2022/10/18 06:45:45;;;;;;;4.45;2.92;;;;;;;11.43;75.45;99815.22;5032164;28;20186;-57
2022/10/18 06:48:11;;;;;;;5.45;3.85;;;;;;;11.52;75.89;99812.13;5032088;28;20178;-57
2022/10/18 06:50:36;;;;;;;3.70;3.40;;;;;;;11.52;75.16;99810.41;5032920;28;20553;-57
2022/10/18 06:53:04;;;;;;;4.03;3.28;;;;;;;11.65;75.12;99805.44;5031997;28;20177;-57
2022/10/18 06:55:30;;;;;;;3.95;3.25;;;;;;;11.81;74.55;99822.75;5032243;28;20202;-57
2022/10/18 06:57:56;;;;;;;4.07;3.65;;;;;;;11.92;73.57;99820.47;5032018;28;20189;-57
